Time;durP1;ratioP1;P1;durP2;ratioP2;P2;SDS_P1;SDS_P2;PMS_P1;PMS_P2;Temp;Humidity;BMP_temperature;BMP_pressure;BME280_temperature;BME280_humidity;BME280_pressure;Samples;Min_cycle;Max_cycle;Signal;HPM_P1;HPM_P2
2021/06/07 00:01:49;;;;;;;15.25;13.68;;;;;;;;;;5053574;28;20206;-44
2021/06/07 00:04:15;;;;;;;13.10;11.75;;;;;;;;;;5054226;28;20194;-44
2021/06/07 00:06:42;;;;;;;13.40;11.52;;;;;;;;;;5054659;28;20281;-44
2021/06/07 00:09:10;;;;;;;12.98;11.70;;;;;;;;;;5050649;28;20182;-44
2021/06/07 00:11:38;;;;;;;14.20;12.80;;;;;;;;;;5042031;28;20597;-44
2021/06/07 00:14:04;;;;;;;15.13;13.52;;;;;;;;;;5045200;28;20553;-44
2021/06/07 00:16:31;;;;;;;15.98;13.93;;;;;;;;;;5052769;28;20224;-44
2021/06/07 00:18:57;;;;;;;15.50;13.93;;;;;;;;;;5048215;28;20180;-44
2021/06/07 00:21:24;;;;;;;15.40;13.52;;;;;;;;;;5033977;28;20186;-44
2021/06/07 00:23:51;;;;;;;14.52;13.07;;;;;;;;;;5052247;28;20186;-44
2021/06/07 00:26:17;;;;;;;16.10;14.45;;;;;;;;;;5054510;28;20182;-44
2021/06/07 00:28:43;;;;;;;15.45;13.85;;;;;;;;;;5051477;28;20191;-44
2021/06/07 00:31:10;;;;;;;14.68;13.23;;;;;;;;;;5033704;28;20204;-44
2021/06/07 00:33:37;;;;;;;13.10;11.75;;;;;;;;;;5050634;28;20183;-44
2021/06/07 00:36:03;;;;;;;13.93;12.52;;;;;;;;;;5053988;28;20185;-44
2021/06/07 00:38:29;;;;;;;15.55;13.93;;;;;;;;;;5053784;28;20442;-44
2021/06/07 00:41:00;;;;;;;17.40;15.57;;;;;;;;;;5035272;28;20176;-44
2021/06/07 00:43:26;;;;;;;14.27;12.88;;;;;;;;;;5048242;28;20183;-44
2021/06/07 00:45:52;;;;;;;16.95;15.18;;;;;;;;;;5054013;28;20179;-44
2021/06/07 00:48:18;;;;;;;13.93;12.52;;;;;;;;;;5053992;28;20175;-44
2021/06/07 00:50:44;;;;;;;19.10;14.93;;;;;;;;;;5053185;28;20306;-45
2021/06/07 00:53:13;;;;;;;15.48;13.88;;;;;;;;;;5052676;28;20262;-45
2021/06/07 00:55:48;;;;;;;17.00;13.68;;;;;;;;;;5053918;28;20633;-44
2021/06/07 00:58:15;;;;;;;16.77;15.00;;;;;;;;;;5050716;28;20172;-45
2021/06/07 01:00:42;;;;;;;14.60;13.15;;;;;;;;;;5051790;28;20203;-45
2021/06/07 01:03:08;;;;;;;15.82;14.20;;;;;;;;;;5056833;28;20178;-44
2021/06/07 01:05:35;;;;;;;17.55;14.13;;;;;;;;;;5054387;28;20187;-44
2021/06/07 01:08:01;;;;;;;15.88;14.27;;;;;;;;;;5057306;28;20202;-44
2021/06/07 01:10:27;;;;;;;16.80;14.80;;;;;;;;;;5045488;28;20577;-44
2021/06/07 01:12:54;;;;;;;17.77;14.63;;;;;;;;;;5044803;28;20213;-44
2021/06/07 01:15:20;;;;;;;16.65;14.73;;;;;;;;;;5057058;28;20490;-44
2021/06/07 01:17:47;;;;;;;14.77;13.18;;;;;;;;;;5057353;28;20210;-44
2021/06/07 01:20:14;;;;;;;17.42;15.07;;;;;;;;;;5056786;28;20195;-44
2021/06/07 01:22:40;;;;;;;18.77;14.88;;;;;;;;;;5055979;28;20214;-44
2021/06/07 01:25:09;;;;;;;15.55;13.95;;;;;;;;;;5043406;28;20179;-44
2021/06/07 01:27:35;;;;;;;18.40;15.90;;;;;;;;;;5037175;28;20176;-44
2021/06/07 01:30:05;;;;;;;16.98;14.55;;;;;;;;;;5049248;28;20491;-44
2021/06/07 01:32:31;;;;;;;15.63;14.00;;;;;;;;;;5056259;28;20194;-44
2021/06/07 01:34:57;;;;;;;16.67;14.13;;;;;;;;;;5056707;28;20938;-44
2021/06/07 01:37:23;;;;;;;20.10;16.17;;;;;;;;;;5056319;28;20179;-44
2021/06/07 01:39:49;;;;;;;16.10;13.95;;;;;;;;;;5055359;28;20179;-44
2021/06/07 01:42:15;;;;;;;19.92;16.58;;;;;;;;;;5056210;28;20411;-44
2021/06/07 01:44:41;;;;;;;18.17;15.95;;;;;;;;;;5056648;28;20186;-44
2021/06/07 01:47:07;;;;;;;16.35;14.48;;;;;;;;;;5056558;28;20580;-44
2021/06/07 01:49:33;;;;;;;18.00;15.65;;;;;;;;;;5055107;28;20213;-44
2021/06/07 01:51:59;;;;;;;15.60;13.85;;;;;;;;;;5055247;28;20687;-44
2021/06/07 01:54:25;;;;;;;16.83;14.55;;;;;;;;;;5056763;28;20179;-44
2021/06/07 01:56:51;;;;;;;17.60;15.23;;;;;;;;;;5056736;28;20530;-44
2021/06/07 01:59:17;;;;;;;15.85;13.40;;;;;;;;;;5056143;28;20181;-44
2021/06/07 02:01:43;;;;;;;16.35;13.68;;;;;;;;;;5055250;28;20519;-45
2021/06/07 02:04:09;;;;;;;16.58;14.40;;;;;;;;;;5055670;28;20277;-45
2021/06/07 02:06:35;;;;;;;15.80;13.95;;;;;;;;;;5042592;28;20211;-44
2021/06/07 02:09:02;;;;;;;15.23;13.30;;;;;;;;;;5055599;28;20305;-44
2021/06/07 02:11:29;;;;;;;15.23;13.60;;;;;;;;;;5055528;28;20455;-44
2021/06/07 02:14:00;;;;;;;13.80;12.35;;;;;;;;;;5056167;28;20183;-44
2021/06/07 02:16:29;;;;;;;17.45;14.45;;;;;;;;;;5056049;28;20507;-44
2021/06/07 02:18:55;;;;;;;14.10;12.57;;;;;;;;;;5054834;28;20470;-44
2021/06/07 02:21:23;;;;;;;13.93;12.10;;;;;;;;;;5055486;28;20179;-44
2021/06/07 02:23:49;;;;;;;15.75;12.90;;;;;;;;;;5052318;28;20262;-44
2021/06/07 02:26:16;;;;;;;14.85;12.82;;;;;;;;;;5055954;28;20179;-44
2021/06/07 02:28:46;;;;;;;16.83;13.23;;;;;;;;;;5055630;28;20252;-44
2021/06/07 02:31:12;;;;;;;14.45;12.13;;;;;;;;;;5054940;28;20203;-44
2021/06/07 02:33:38;;;;;;;13.40;11.95;;;;;;;;;;5048575;28;20683;-45
2021/06/07 02:36:04;;;;;;;13.35;12.05;;;;;;;;;;5055899;28;20163;-45
2021/06/07 02:38:30;;;;;;;14.10;12.10;;;;;;;;;;5055090;28;20543;-45
2021/06/07 02:40:56;;;;;;;14.60;12.73;;;;;;;;;;5055005;28;20191;-45
2021/06/07 02:43:22;;;;;;;14.35;12.27;;;;;;;;;;5054538;28;20792;-44
2021/06/07 02:45:49;;;;;;;14.70;11.80;;;;;;;;;;5054054;28;20261;-45
2021/06/07 02:48:15;;;;;;;15.38;13.77;;;;;;;;;;5054682;28;20244;-44
2021/06/07 02:50:43;;;;;;;15.10;12.15;;;;;;;;;;5054987;28;20231;-44
2021/06/07 02:53:09;;;;;;;13.27;11.20;;;;;;;;;;5055069;28;20189;-44
2021/06/07 02:55:47;;;;;;;15.32;13.60;;;;;;;;;;5038074;28;20172;-44
2021/06/07 02:58:13;;;;;;;16.15;14.43;;;;;;;;;;5044569;28;20217;-44
2021/06/07 03:00:42;;;;;;;14.73;13.15;;;;;;;;;;5052194;28;20305;-44
2021/06/07 03:03:09;;;;;;;12.50;11.20;;;;;;;;;;5055075;28;20493;-44
2021/06/07 03:05:36;;;;;;;11.85;10.65;;;;;;;;;;5053581;28;20187;-44
2021/06/07 03:08:02;;;;;;;12.43;11.13;;;;;;;;;;5052502;28;20180;-44
2021/06/07 03:10:28;;;;;;;12.77;11.20;;;;;;;;;;5053119;28;20212;-44
2021/06/07 03:12:54;;;;;;;15.63;13.52;;;;;;;;;;5054974;28;20586;-44
2021/06/07 03:15:22;;;;;;;13.00;11.70;;;;;;;;;;5054980;28;20222;-44
2021/06/07 03:17:48;;;;;;;12.68;11.38;;;;;;;;;;5054796;28;20175;-45
2021/06/07 03:20:15;;;;;;;12.38;11.07;;;;;;;;;;5054697;28;20178;-44
2021/06/07 03:22:42;;;;;;;13.98;12.48;;;;;;;;;;5042780;28;20633;-44
2021/06/07 03:25:08;;;;;;;14.02;11.90;;;;;;;;;;5054612;28;20198;-44
2021/06/07 03:27:35;;;;;;;12.60;11.32;;;;;;;;;;5051595;28;20195;-44
2021/06/07 03:30:01;;;;;;;13.05;11.55;;;;;;;;;;5047911;28;20184;-44
2021/06/07 03:32:27;;;;;;;14.18;12.27;;;;;;;;;;5034375;28;20186;-44
2021/06/07 03:34:53;;;;;;;13.25;11.93;;;;;;;;;;5050796;28;20171;-44
2021/06/07 03:37:19;;;;;;;11.73;10.52;;;;;;;;;;5052036;28;20183;-44
2021/06/07 03:39:45;;;;;;;12.65;11.35;;;;;;;;;;5047240;28;20182;-44
2021/06/07 03:42:11;;;;;;;12.25;11.05;;;;;;;;;;5034290;28;20253;-44
2021/06/07 03:44:37;;;;;;;12.65;11.35;;;;;;;;;;5036559;28;20183;-44
2021/06/07 03:47:03;;;;;;;13.43;11.68;;;;;;;;;;5054410;28;20236;-44
2021/06/07 03:49:29;;;;;;;14.45;11.80;;;;;;;;;;5049230;28;20230;-44
2021/06/07 03:51:55;;;;;;;12.57;11.35;;;;;;;;;;5052438;28;20531;-44
2021/06/07 03:54:21;;;;;;;12.50;11.30;;;;;;;;;;5053594;28;20282;-44
2021/06/07 03:56:47;;;;;;;13.70;12.27;;;;;;;;;;5052664;28;20451;-44
2021/06/07 03:59:14;;;;;;;12.25;11.00;;;;;;;;;;5054105;28;20258;-44
2021/06/07 04:01:40;;;;;;;11.90;10.73;;;;;;;;;;5053766;28;20226;-44
2021/06/07 04:04:06;;;;;;;12.73;11.43;;;;;;;;;;5049645;28;20179;-44
2021/06/07 04:06:32;;;;;;;12.73;11.43;;;;;;;;;;5034671;28;20234;-44
2021/06/07 04:09:01;;;;;;;12.45;11.15;;;;;;;;;;5052468;28;20229;-44
2021/06/07 04:11:27;;;;;;;11.93;10.73;;;;;;;;;;5053715;28;20249;-44
2021/06/07 04:13:53;;;;;;;11.27;10.07;;;;;;;;;;5054010;28;20171;-44
2021/06/07 04:16:19;;;;;;;13.60;12.20;;;;;;;;;;5054409;28;20214;-44
2021/06/07 04:18:45;;;;;;;13.77;12.30;;;;;;;;;;5051628;28;20234;-44
2021/06/07 04:21:11;;;;;;;12.40;11.20;;;;;;;;;;5033876;28;20207;-44
2021/06/07 04:23:38;;;;;;;12.13;10.85;;;;;;;;;;5049195;28;20474;-44
2021/06/07 04:26:04;;;;;;;11.65;10.45;;;;;;;;;;5054238;28;20244;-44
2021/06/07 04:28:33;;;;;;;13.82;12.30;;;;;;;;;;5054348;28;20167;-44
2021/06/07 04:30:59;;;;;;;18.70;13.15;;;;;;;;;;5053692;28;20198;-44
2021/06/07 04:33:25;;;;;;;24.35;14.57;;;;;;;;;;5053929;28;20554;-44
2021/06/07 04:35:51;;;;;;;20.52;16.15;;;;;;;;;;5057763;28;20261;-44
2021/06/07 04:38:17;;;;;;;19.85;14.45;;;;;;;;;;5056715;28;20240;-44
2021/06/07 04:40:45;;;;;;;23.08;15.85;;;;;;;;;;5053929;28;20449;-44
2021/06/07 04:43:13;;;;;;;23.67;15.85;;;;;;;;;;5057608;28;20182;-44
2021/06/07 04:45:39;;;;;;;20.67;15.20;;;;;;;;;;5057805;28;20187;-44
2021/06/07 04:48:06;;;;;;;18.80;14.23;;;;;;;;;;5056419;28;20512;-44
2021/06/07 04:50:32;;;;;;;18.85;14.65;;;;;;;;;;5056458;28;20217;-44
2021/06/07 04:53:00;;;;;;;20.88;14.93;;;;;;;;;;5057184;28;20182;-44
2021/06/07 04:55:31;;;;;;;20.13;15.80;;;;;;;;;;5039597;28;20179;-44
2021/06/07 04:57:58;;;;;;;19.58;15.88;;;;;;;;;;5037971;28;20200;-44
2021/06/07 05:00:25;;;;;;;20.30;14.93;;;;;;;;;;5044105;28;20187;-44
2021/06/07 05:02:51;;;;;;;18.02;15.57;;;;;;;;;;5057134;28;20178;-44
2021/06/07 05:05:17;;;;;;;21.52;16.23;;;;;;;;;;5055317;28;20621;-45
2021/06/07 05:07:43;;;;;;;19.15;15.80;;;;;;;;;;5056312;28;20187;-44
2021/06/07 05:10:10;;;;;;;18.63;15.77;;;;;;;;;;5053803;28;20194;-44
2021/06/07 05:12:36;;;;;;;20.95;15.55;;;;;;;;;;5055999;28;20254;-44
2021/06/07 05:15:02;;;;;;;20.88;16.08;;;;;;;;;;5048113;28;20284;-44
2021/06/07 05:17:28;;;;;;;20.55;16.23;;;;;;;;;;5037585;28;20179;-44
2021/06/07 05:19:54;;;;;;;19.13;15.52;;;;;;;;;;5056543;28;20182;-44
2021/06/07 05:22:20;;;;;;;21.20;16.55;;;;;;;;;;5054232;28;20194;-44
2021/06/07 05:24:47;;;;;;;19.40;16.13;;;;;;;;;;5054405;28;20235;-44
2021/06/07 05:27:13;;;;;;;18.67;16.20;;;;;;;;;;5056440;28;20190;-44
2021/06/07 05:29:39;;;;;;;20.25;16.48;;;;;;;;;;5051379;28;20535;-44
2021/06/07 05:32:06;;;;;;;22.77;17.55;;;;;;;;;;5055179;28;20210;-44
2021/06/07 05:34:32;;;;;;;25.70;18.35;;;;;;;;;;5055503;28;20225;-44
2021/06/07 05:36:58;;;;;;;23.90;18.13;;;;;;;;;;5056167;28;20174;-44
2021/06/07 05:39:24;;;;;;;24.38;18.63;;;;;;;;;;5051127;28;20254;-44
2021/06/07 05:41:50;;;;;;;24.77;18.55;;;;;;;;;;5048954;28;20508;-44
2021/06/07 05:44:16;;;;;;;22.30;18.20;;;;;;;;;;5054918;28;20598;-44
2021/06/07 05:46:42;;;;;;;24.77;17.60;;;;;;;;;;5054916;28;20274;-44
2021/06/07 05:49:08;;;;;;;23.15;17.63;;;;;;;;;;5056286;28;20193;-44
2021/06/07 05:51:34;;;;;;;24.88;19.95;;;;;;;;;;5055762;28;20211;-44
2021/06/07 05:54:00;;;;;;;21.75;18.52;;;;;;;;;;5056626;28;20190;-44
2021/06/07 05:56:26;;;;;;;25.33;18.73;;;;;;;;;;5056338;28;20183;-44
2021/06/07 05:58:57;;;;;;;21.83;18.08;;;;;;;;;;5056553;28;20206;-44
2021/06/07 06:01:23;;;;;;;24.60;19.45;;;;;;;;;;5055606;28;20260;-44
2021/06/07 06:03:49;;;;;;;24.38;18.33;;;;;;;;;;5056531;28;20175;-44
2021/06/07 06:06:15;;;;;;;25.05;18.90;;;;;;;;;;5056230;28;20179;-44
2021/06/07 06:08:41;;;;;;;22.88;18.15;;;;;;;;;;5056221;28;20562;-44
2021/06/07 06:11:07;;;;;;;28.35;18.92;;;;;;;;;;5055789;28;20274;-44
2021/06/07 06:13:33;;;;;;;24.77;18.98;;;;;;;;;;5056187;28;20539;-44
2021/06/07 06:15:59;;;;;;;23.30;18.50;;;;;;;;;;5055815;28;20183;-44
2021/06/07 06:18:26;;;;;;;25.33;19.42;;;;;;;;;;5056194;28;20451;-44
2021/06/07 06:20:52;;;;;;;23.75;18.95;;;;;;;;;;5055624;28;20175;-44
2021/06/07 06:23:18;;;;;;;23.40;19.30;;;;;;;;;;5056201;28;20172;-44
2021/06/07 06:25:44;;;;;;;24.17;19.15;;;;;;;;;;5055727;28;20179;-44
2021/06/07 06:28:10;;;;;;;24.90;19.48;;;;;;;;;;5056141;28;20221;-44
2021/06/07 06:30:36;;;;;;;20.95;17.90;;;;;;;;;;5054977;28;20194;-44
2021/06/07 06:33:02;;;;;;;23.85;17.98;;;;;;;;;;5055942;28;20174;-44
2021/06/07 06:35:28;;;;;;;23.15;17.98;;;;;;;;;;5055876;28;20169;-44
2021/06/07 06:37:55;;;;;;;22.10;17.90;;;;;;;;;;5055455;28;20305;-44
2021/06/07 06:40:23;;;;;;;19.40;16.40;;;;;;;;;;5055528;28;20273;-44
2021/06/07 06:42:50;;;;;;;20.23;15.68;;;;;;;;;;5055262;28;20205;-44
2021/06/07 06:45:16;;;;;;;19.00;16.35;;;;;;;;;;5054692;28;20198;-44
2021/06/07 06:47:43;;;;;;;17.55;14.55;;;;;;;;;;5055077;28;20550;-44
2021/06/07 06:50:10;;;;;;;16.08;14.23;;;;;;;;;;5041947;28;20187;-44
2021/06/07 06:52:36;;;;;;;17.33;14.70;;;;;;;;;;5052625;28;20377;-44
2021/06/07 06:55:02;;;;;;;18.50;15.00;;;;;;;;;;5052957;28;20171;-44
2021/06/07 06:57:28;;;;;;;14.93;13.18;;;;;;;;;;5053437;28;20171;-44
2021/06/07 06:59:54;;;;;;;20.05;13.40;;;;;;;;;;5053616;28;20213;-44
2021/06/07 07:02:20;;;;;;;16.42;13.82;;;;;;;;;;5053097;28;20202;-44
2021/06/07 07:04:46;;;;;;;15.48;13.02;;;;;;;;;;5053979;28;20673;-44
2021/06/07 07:07:12;;;;;;;15.40;12.65;;;;;;;;;;5053364;28;20191;-44
2021/06/07 07:09:42;;;;;;;14.95;13.25;;;;;;;;;;5051474;28;20184;-44
2021/06/07 07:12:08;;;;;;;13.60;12.10;;;;;;;;;;5046778;28;20206;-44
2021/06/07 07:14:34;;;;;;;13.52;12.13;;;;;;;;;;5039850;28;20180;-44
2021/06/07 07:17:00;;;;;;;17.90;12.40;;;;;;;;;;5050105;28;20187;-44
2021/06/07 07:19:26;;;;;;;16.27;13.00;;;;;;;;;;5047768;28;20254;-44
2021/06/07 07:21:52;;;;;;;15.27;12.85;;;;;;;;;;5047616;28;20179;-44
2021/06/07 07:24:18;;;;;;;13.48;12.10;;;;;;;;;;5047768;28;20198;-44
2021/06/07 07:26:45;;;;;;;13.70;12.32;;;;;;;;;;5054568;28;20283;-44
2021/06/07 07:29:11;;;;;;;14.55;13.02;;;;;;;;;;5054925;28;20183;-44
2021/06/07 07:31:37;;;;;;;14.38;12.43;;;;;;;;;;5050027;28;20295;-44
2021/06/07 07:34:03;;;;;;;14.73;12.93;;;;;;;;;;5042632;28;20491;-44
2021/06/07 07:36:29;;;;;;;14.05;12.57;;;;;;;;;;5051700;28;20179;-44
2021/06/07 07:38:55;;;;;;;14.57;12.43;;;;;;;;;;5046682;28;20179;-44
2021/06/07 07:41:21;;;;;;;16.33;11.70;;;;;;;;;;5043834;28;20259;-44
2021/06/07 07:43:48;;;;;;;11.85;10.65;;;;;;;;;;5035383;28;20184;-44
2021/06/07 07:46:14;;;;;;;17.13;12.25;;;;;;;;;;5035551;28;20262;-44
2021/06/07 07:48:40;;;;;;;15.07;13.25;;;;;;;;;;5042848;28;20257;-44
2021/06/07 07:51:06;;;;;;;15.40;12.75;;;;;;;;;;5050439;28;20203;-44
2021/06/07 07:53:32;;;;;;;15.32;12.00;;;;;;;;;;5047206;28;20524;-44
2021/06/07 07:55:58;;;;;;;17.08;13.52;;;;;;;;;;5034470;28;20160;-44
2021/06/07 07:58:25;;;;;;;13.73;12.32;;;;;;;;;;5044839;28;20500;-44
2021/06/07 08:00:52;;;;;;;15.50;13.23;;;;;;;;;;5036621;28;20208;-44
2021/06/07 08:03:18;;;;;;;14.43;12.68;;;;;;;;;;5034613;28;20581;-44
2021/06/07 08:05:44;;;;;;;14.85;12.93;;;;;;;;;;5044808;28;20183;-44
2021/06/07 08:08:10;;;;;;;15.82;13.75;;;;;;;;;;5046502;28;20178;-44
2021/06/07 08:10:36;;;;;;;16.65;13.82;;;;;;;;;;5042733;28;20250;-44
2021/06/07 08:13:03;;;;;;;17.27;14.35;;;;;;;;;;5052089;28;20421;-44
2021/06/07 08:15:29;;;;;;;15.98;13.82;;;;;;;;;;5054052;28;20488;-44
2021/06/07 08:17:55;;;;;;;14.32;12.80;;;;;;;;;;5039761;28;20202;-44
2021/06/07 08:20:21;;;;;;;17.45;15.07;;;;;;;;;;5056985;28;20276;-44
2021/06/07 08:22:50;;;;;;;17.67;14.43;;;;;;;;;;5058111;28;20178;-44
2021/06/07 08:25:16;;;;;;;16.42;13.75;;;;;;;;;;5052071;28;20559;-44
2021/06/07 08:27:42;;;;;;;17.35;14.20;;;;;;;;;;5058393;28;20254;-44
2021/06/07 08:30:09;;;;;;;15.40;13.73;;;;;;;;;;5050700;28;20186;-44
2021/06/07 08:32:35;;;;;;;18.98;13.38;;;;;;;;;;5045213;28;20187;-44
2021/06/07 08:35:02;;;;;;;18.33;14.23;;;;;;;;;;5054663;28;20207;-44
2021/06/07 08:37:28;;;;;;;20.55;14.55;;;;;;;;;;5058097;28;20163;-44
2021/06/07 08:39:54;;;;;;;31.17;14.98;;;;;;;;;;5045632;28;20850;-44
2021/06/07 08:42:20;;;;;;;21.02;15.07;;;;;;;;;;5046815;28;20191;-44
2021/06/07 08:44:46;;;;;;;33.42;14.77;;;;;;;;;;5046036;28;20200;-44
2021/06/07 08:47:12;;;;;;;30.00;15.00;;;;;;;;;;5047139;28;20175;-44
2021/06/07 08:49:39;;;;;;;25.17;13.90;;;;;;;;;;5052767;28;20451;-44
2021/06/07 08:52:05;;;;;;;21.50;15.02;;;;;;;;;;5041419;28;20199;-44
2021/06/07 08:54:32;;;;;;;18.77;14.15;;;;;;;;;;5046358;28;20175;-44
2021/06/07 08:56:58;;;;;;;21.33;13.48;;;;;;;;;;5057288;28;20199;-44
2021/06/07 08:59:24;;;;;;;17.65;13.07;;;;;;;;;;5053397;28;20438;-44
2021/06/07 09:01:54;;;;;;;14.25;12.60;;;;;;;;;;5057073;28;20193;-44
2021/06/07 09:04:21;;;;;;;16.83;13.65;;;;;;;;;;5055988;28;20178;-45
2021/06/07 09:06:48;;;;;;;16.42;13.70;;;;;;;;;;5051683;28;20219;-44
2021/06/07 09:09:16;;;;;;;21.90;12.68;;;;;;;;;;5038587;28;20183;-44
2021/06/07 09:11:43;;;;;;;15.68;12.73;;;;;;;;;;5036934;28;20199;-44
2021/06/07 09:14:16;;;;;;;17.80;13.13;;;;;;;;;;5051927;28;20184;-44
2021/06/07 09:16:42;;;;;;;14.05;12.38;;;;;;;;;;5057600;28;20614;-44
2021/06/07 09:19:18;;;;;;;14.27;12.10;;;;;;;;;;5043431;28;20175;-44
2021/06/07 09:21:45;;;;;;;15.65;12.80;;;;;;;;;;5036559;28;20499;-44
2021/06/07 09:24:11;;;;;;;18.00;12.73;;;;;;;;;;5037444;28;20246;-44
2021/06/07 09:26:38;;;;;;;19.42;13.25;;;;;;;;;;5037146;28;20207;-44
2021/06/07 09:29:10;;;;;;;14.70;12.30;;;;;;;;;;5037282;28;20172;-44
2021/06/07 09:31:37;;;;;;;16.30;13.52;;;;;;;;;;5041211;28;20195;-44
2021/06/07 09:34:07;;;;;;;17.15;14.07;;;;;;;;;;5055519;28;20570;-44
2021/06/07 09:36:33;;;;;;;17.27;14.27;;;;;;;;;;5057060;28;20557;-44
2021/06/07 09:39:12;;;;;;;16.50;14.27;;;;;;;;;;5056880;28;20167;-44
2021/06/07 09:41:47;;;;;;;17.35;14.77;;;;;;;;;;5039896;28;20306;-44
2021/06/07 09:44:22;;;;;;;16.00;14.13;;;;;;;;;;5043878;28;20175;-44
2021/06/07 09:46:48;;;;;;;18.20;14.20;;;;;;;;;;5045206;28;20234;-44
2021/06/07 09:49:16;;;;;;;17.75;14.85;;;;;;;;;;5049483;28;20175;-44
2021/06/07 09:51:51;;;;;;;17.55;14.40;;;;;;;;;;5053615;28;20206;-44
2021/06/07 09:54:17;;;;;;;15.77;14.10;;;;;;;;;;5046628;28;20187;-45
2021/06/07 09:56:57;;;;;;;18.15;14.60;;;;;;;;;;5036143;28;20488;-44
2021/06/07 09:59:31;;;;;;;19.63;14.50;;;;;;;;;;5036428;28;20226;-44
2021/06/07 10:02:00;;;;;;;18.30;14.88;;;;;;;;;;5037227;28;20183;-44
2021/06/07 10:04:49;;;;;;;15.63;13.93;;;;;;;;;;5036615;28;20183;-44
2021/06/07 10:07:16;;;;;;;14.82;13.40;;;;;;;;;;5034396;28;20195;-44
2021/06/07 10:10:05;;;;;;;16.10;14.40;;;;;;;;;;5036351;28;20176;-44
2021/06/07 10:12:31;;;;;;;16.27;14.20;;;;;;;;;;5032851;28;20224;-44
2021/06/07 10:14:57;;;;;;;16.48;14.77;;;;;;;;;;5036455;28;20186;-44
2021/06/07 10:17:23;;;;;;;16.98;14.68;;;;;;;;;;5036198;28;20172;-44
2021/06/07 10:20:46;;;;;;;15.90;14.07;;;;;;;;;;5042800;28;20538;-44
2021/06/07 10:22:36;;;;;;;16.65;14.80;;;;;;;;;;5054669;28;20515;-44
2021/06/07 10:25:02;;;;;;;15.02;13.48;;;;;;;;;;5056056;28;20179;-44
2021/06/07 10:27:28;;;;;;;16.98;15.18;;;;;;;;;;5055886;28;20277;-44
2021/06/07 10:29:54;;;;;;;15.95;14.35;;;;;;;;;;5055528;28;20581;-44
2021/06/07 10:32:28;;;;;;;16.48;14.73;;;;;;;;;;5054576;28;20195;-44
2021/06/07 10:35:05;;;;;;;22.55;14.55;;;;;;;;;;5054245;28;20302;-44
2021/06/07 10:37:32;;;;;;;17.77;14.38;;;;;;;;;;5044558;28;20173;-44
2021/06/07 10:40:16;;;;;;;16.63;14.82;;;;;;;;;;5055496;28;20199;-44
2021/06/07 10:42:56;;;;;;;16.80;15.00;;;;;;;;;;5054718;28;20179;-44
2021/06/07 10:45:27;;;;;;;17.08;15.30;;;;;;;;;;5055647;28;20182;-44
2021/06/07 10:47:53;;;;;;;17.50;15.70;;;;;;;;;;5052961;28;20203;-44
2021/06/07 10:50:21;;;;;;;17.27;15.48;;;;;;;;;;5046603;28;20198;-44
2021/06/07 10:52:54;;;;;;;16.98;15.18;;;;;;;;;;5035255;28;20247;-44
2021/06/07 10:55:29;;;;;;;17.13;15.32;;;;;;;;;;5040229;28;20175;-44
2021/06/07 10:58:08;;;;;;;18.83;15.23;;;;;;;;;;5049515;28;20190;-44
2021/06/07 11:00:39;;;;;;;15.07;13.57;;;;;;;;;;5054827;28;20164;-44
2021/06/07 11:03:19;;;;;;;17.88;15.98;;;;;;;;;;5055325;28;20155;-44
2021/06/07 11:05:46;;;;;;;16.95;15.25;;;;;;;;;;5054866;28;20174;-44
2021/06/07 11:08:12;;;;;;;17.58;15.88;;;;;;;;;;5054634;28;20179;-44
2021/06/07 11:10:42;;;;;;;17.13;15.32;;;;;;;;;;5054675;28;20269;-44
2021/06/07 11:13:18;;;;;;;16.77;15.07;;;;;;;;;;5055091;28;20198;-44
2021/06/07 11:15:55;;;;;;;17.75;15.93;;;;;;;;;;5054787;28;20517;-44
2021/06/07 11:18:31;;;;;;;19.80;15.93;;;;;;;;;;5055026;28;20191;-44
2021/06/07 11:21:00;;;;;;;17.42;15.63;;;;;;;;;;5034842;28;20221;-44
2021/06/07 11:23:45;;;;;;;19.08;16.05;;;;;;;;;;5035499;28;20176;-44
2021/06/07 11:26:12;;;;;;;21.35;16.75;;;;;;;;;;5035334;28;20470;-44
2021/06/07 11:28:48;;;;;;;18.35;16.35;;;;;;;;;;5045895;28;20191;-44
2021/06/07 11:31:20;;;;;;;18.60;16.25;;;;;;;;;;5053753;28;20203;-44
2021/06/07 11:33:56;;;;;;;17.50;15.82;;;;;;;;;;5055282;28;20501;-44
2021/06/07 11:36:38;;;;;;;18.20;16.30;;;;;;;;;;5054910;28;20170;-44
2021/06/07 11:39:09;;;;;;;16.80;14.88;;;;;;;;;;5054543;28;20558;-44
2021/06/07 11:41:40;;;;;;;17.88;15.98;;;;;;;;;;5053982;28;20178;-44
2021/06/07 11:44:06;;;;;;;17.70;15.68;;;;;;;;;;5051229;28;20240;-44
2021/06/07 11:46:32;;;;;;;16.63;14.93;;;;;;;;;;5054816;28;20265;-44
2021/06/07 11:49:05;;;;;;;19.92;16.13;;;;;;;;;;5051353;28;20839;-44
2021/06/07 11:51:32;;;;;;;19.15;15.27;;;;;;;;;;5051776;28;20238;-44
2021/06/07 11:53:58;;;;;;;21.10;15.70;;;;;;;;;;5042338;28;20226;-44
2021/06/07 11:56:24;;;;;;;20.13;15.45;;;;;;;;;;5053561;28;20485;-44
2021/06/07 11:58:51;;;;;;;21.83;16.70;;;;;;;;;;5054405;28;20232;-44
2021/06/07 12:01:17;;;;;;;18.58;15.45;;;;;;;;;;5054093;28;20167;-44
2021/06/07 12:03:43;;;;;;;16.30;14.60;;;;;;;;;;5049458;28;20184;-44
2021/06/07 12:06:09;;;;;;;17.67;15.40;;;;;;;;;;5041814;28;20183;-44
2021/06/07 12:08:35;;;;;;;21.80;15.82;;;;;;;;;;5052910;28;20182;-44
2021/06/07 12:11:03;;;;;;;28.80;18.23;;;;;;;;;;5053898;28;20202;-44
2021/06/07 12:13:29;;;;;;;27.77;16.95;;;;;;;;;;5054559;28;20212;-44
2021/06/07 12:15:57;;;;;;;21.88;15.65;;;;;;;;;;5054189;28;20179;-44
2021/06/07 12:18:29;;;;;;;21.20;15.98;;;;;;;;;;5054356;28;20268;-44
2021/06/07 12:21:00;;;;;;;19.00;16.33;;;;;;;;;;5053905;28;20266;-44
2021/06/07 12:23:32;;;;;;;17.88;15.98;;;;;;;;;;5045594;28;20183;-44
2021/06/07 12:28:53;;;;;;;28.65;15.88;;;;;;;;;;5017333;28;20271;-44
2021/06/07 12:31:23;;;;;;;20.35;15.48;;;;;;;;;;5053776;28;20278;-44
2021/06/07 12:33:49;;;;;;;20.42;14.75;;;;;;;;;;5053970;28;20178;-44
2021/06/07 12:36:15;;;;;;;16.00;14.13;;;;;;;;;;5054310;28;20171;-44
2021/06/07 12:38:42;;;;;;;18.73;14.40;;;;;;;;;;5054387;28;20199;-44
2021/06/07 12:41:08;;;;;;;18.00;15.15;;;;;;;;;;5052506;28;20183;-44
2021/06/07 12:43:40;;;;;;;17.67;14.45;;;;;;;;;;5053961;28;20572;-44
2021/06/07 12:46:07;;;;;;;16.52;14.50;;;;;;;;;;5054047;28;20190;-44
2021/06/07 12:48:39;;;;;;;16.35;14.73;;;;;;;;;;5053889;28;20593;-44
2021/06/07 12:51:07;;;;;;;18.63;14.23;;;;;;;;;;5053485;28;20203;-44
2021/06/07 12:53:35;;;;;;;15.77;13.90;;;;;;;;;;5054221;28;20159;-44
2021/06/07 12:56:04;;;;;;;15.75;13.18;;;;;;;;;;5058024;28;20593;-44
2021/06/07 12:58:30;;;;;;;16.85;14.27;;;;;;;;;;5057285;28;20178;-44
2021/06/07 13:00:58;;;;;;;16.02;13.65;;;;;;;;;;5056960;28;20191;-44
2021/06/07 13:03:37;;;;;;;16.58;13.73;;;;;;;;;;5057584;28;20171;-44
2021/06/07 13:06:03;;;;;;;16.17;13.85;;;;;;;;;;5057662;28;20174;-44
2021/06/07 13:08:29;;;;;;;16.63;12.27;;;;;;;;;;5057419;28;20435;-44
2021/06/07 13:10:57;;;;;;;28.25;15.23;;;;;;;;;;5056626;28;20469;-44
2021/06/07 13:13:24;;;;;;;20.25;13.25;;;;;;;;;;5057044;28;20174;-44
2021/06/07 13:15:59;;;;;;;14.38;12.90;;;;;;;;;;5056984;28;20510;-44
2021/06/07 13:18:25;;;;;;;16.38;14.32;;;;;;;;;;5057347;28;20170;-44
2021/06/07 13:21:05;;;;;;;14.88;13.38;;;;;;;;;;5056644;28;20187;-44
2021/06/07 13:23:42;;;;;;;14.55;12.65;;;;;;;;;;5056975;28;20178;-44
2021/06/07 13:26:23;;;;;;;16.20;13.70;;;;;;;;;;5057449;28;20546;-44
2021/06/07 13:28:49;;;;;;;15.88;12.85;;;;;;;;;;5057079;28;20242;-44
2021/06/07 13:31:15;;;;;;;15.07;13.57;;;;;;;;;;5056389;28;20195;-44
2021/06/07 13:33:41;;;;;;;15.65;13.98;;;;;;;;;;5056910;28;20171;-44
2021/06/07 13:36:09;;;;;;;14.45;13.05;;;;;;;;;;5057051;28;20179;-44
2021/06/07 13:38:36;;;;;;;15.23;12.82;;;;;;;;;;5057094;28;20202;-44
2021/06/07 13:41:10;;;;;;;14.48;12.40;;;;;;;;;;5056388;28;20185;-44
2021/06/07 13:43:36;;;;;;;14.30;12.80;;;;;;;;;;5056902;28;20171;-44
2021/06/07 13:46:02;;;;;;;13.20;12.00;;;;;;;;;;5056700;28;20612;-44
2021/06/07 13:48:33;;;;;;;14.45;13.05;;;;;;;;;;5056351;28;20189;-44
2021/06/07 13:51:01;;;;;;;14.13;12.73;;;;;;;;;;5056100;28;20203;-44
2021/06/07 13:53:34;;;;;;;14.48;12.98;;;;;;;;;;5056568;28;20167;-44
2021/06/07 13:56:01;;;;;;;16.15;13.77;;;;;;;;;;5056802;28;20167;-44
2021/06/07 13:58:38;;;;;;;14.20;12.80;;;;;;;;;;5056082;28;20194;-44
2021/06/07 14:01:04;;;;;;;14.90;13.40;;;;;;;;;;5055981;28;20175;-44
2021/06/07 14:03:31;;;;;;;14.68;13.27;;;;;;;;;;5056493;28;20174;-44
2021/06/07 14:05:58;;;;;;;14.18;12.88;;;;;;;;;;5055806;28;20252;-44
2021/06/07 14:08:29;;;;;;;15.95;13.98;;;;;;;;;;5056339;28;20194;-44
2021/06/07 14:10:56;;;;;;;17.27;15.48;;;;;;;;;;5055576;28;20444;-44
2021/06/07 14:13:22;;;;;;;15.82;13.52;;;;;;;;;;5056085;28;20602;-44
2021/06/07 14:15:49;;;;;;;14.25;12.75;;;;;;;;;;5056495;28;20168;-44
2021/06/07 14:18:16;;;;;;;15.48;13.98;;;;;;;;;;5056382;28;20164;-44
2021/06/07 14:20:46;;;;;;;14.85;13.38;;;;;;;;;;5055787;28;20585;-44
2021/06/07 14:26:02;;;;;;;15.50;14.00;;;;;;;;;;5055333;28;20275;-44